This is the latest recevied weather packets stored in our database for station/object NK7E-2. If no packets are shown the sender has not sent any weather packets the latest 10 day(s).
| Time | Temp. | Humidity | Pressure | Rain* | Wind** | Luminosity | Snow |
|---|---|---|---|---|---|---|---|
| 1777707916 | 17.78° C | 29% | 1021.6 hPa | 0 mm | - | - | - |
| 1777707316 | 18.33° C | 29% | 1021.8 hPa | 0 mm | - | - | - |
| 1777706716 | 18.33° C | 29% | 1021.6 hPa | 0 mm | - | - | - |
| 1777706116 | 18.89° C | 28% | 1021.5 hPa | 0 mm | - | - | - |
| 1777705516 | 19.44° C | 27% | 1021.8 hPa | 0 mm | - | - | - |
| 1777704916 | 19.44° C | 27% | 1021.5 hPa | 0 mm | - | - | - |
| 1777704316 | 20° C | 27% | 1021.5 hPa | 0 mm | - | - | - |
| 1777703716 | 20° C | 27% | 1021.6 hPa | 0 mm | - | - | - |
| 1777703116 | 20° C | 27% | 1021.3 hPa | 0 mm | - | - | - |
| 1777702516 | 20° C | 26% | 1021 hPa | 0 mm | - | - | - |
| 1777701916 | 20.56° C | 26% | 1021 hPa | 0 mm | - | - | - |
| 1777701316 | 20° C | 26% | 1021 hPa | 0 mm | - | - | - |
| 1777700716 | 20.56° C | 26% | 1021.1 hPa | 0 mm | - | - | - |
| 1777700116 | 20.56° C | 26% | 1021.1 hPa | 0 mm | - | - | - |
| 1777699516 | 20.56° C | 25% | 1020.9 hPa | 0 mm | - | - | - |
| 1777698916 | 21.11° C | 25% | 1020.9 hPa | 0 mm | - | - | - |
| 1777698316 | 21.11° C | 25% | 1020.7 hPa | 0 mm | - | - | - |
| 1777697716 | 20.56° C | 25% | 1020.6 hPa | 0 mm | - | - | - |
| 1777697116 | 21.11° C | 24% | 1020.6 hPa | 0 mm | - | - | - |
| 1777696516 | 21.11° C | 24% | 1020.5 hPa | 0 mm | - | - | - |
| 1777695916 | 21.67° C | 24% | 1020.5 hPa | 0 mm | - | - | - |
| 1777695316 | 21.67° C | 24% | 1020.6 hPa | 0 mm | - | - | - |
| 1777694716 | 21.67° C | 24% | 1020.2 hPa | 0 mm | - | - | - |
| 1777694116 | 21.11° C | 25% | 1019.9 hPa | 0 mm | - | - | - |
| 1777693516 | 21.67° C | 24% | 1020 hPa | 0 mm | - | - | - |
* Rain latest hour (hover to see other rain measurements)
** Current wind speed in m/s (hover to see current wind gust speed)